sensor_id;sensor_type;location;lat;lon;timestamp;P1;durP1;ratioP1;P2;durP2;ratioP2
62693;SDS011;48759;52.544;13.418;2023-03-20T00:00:38;6.50;;;4.20;;
62693;SDS011;48759;52.544;13.418;2023-03-20T00:03:10;5.67;;;5.00;;
62693;SDS011;48759;52.544;13.418;2023-03-20T00:05:38;7.50;;;5.07;;
62693;SDS011;48759;52.544;13.418;2023-03-20T00:08:06;7.57;;;4.70;;
62693;SDS011;48759;52.544;13.418;2023-03-20T00:10:34;6.60;;;5.30;;
62693;SDS011;48759;52.544;13.418;2023-03-20T00:13:04;9.83;;;5.57;;
62693;SDS011;48759;52.544;13.418;2023-03-20T00:15:34;7.73;;;5.17;;
62693;SDS011;48759;52.544;13.418;2023-03-20T00:18:05;9.93;;;5.27;;
62693;SDS011;48759;52.544;13.418;2023-03-20T00:20:39;8.57;;;5.77;;
62693;SDS011;48759;52.544;13.418;2023-03-20T00:23:08;6.07;;;5.17;;
62693;SDS011;48759;52.544;13.418;2023-03-20T00:25:35;9.20;;;5.47;;
62693;SDS011;48759;52.544;13.418;2023-03-20T00:28:09;6.27;;;4.37;;
62693;SDS011;48759;52.544;13.418;2023-03-20T00:30:54;7.87;;;5.43;;
62693;SDS011;48759;52.544;13.418;2023-03-20T00:33:22;6.10;;;5.47;;
62693;SDS011;48759;52.544;13.418;2023-03-20T00:35:51;8.20;;;5.30;;
62693;SDS011;48759;52.544;13.418;2023-03-20T00:38:18;6.70;;;6.00;;
62693;SDS011;48759;52.544;13.418;2023-03-20T00:40:44;7.53;;;5.77;;
62693;SDS011;48759;52.544;13.418;2023-03-20T00:43:11;11.97;;;4.80;;
62693;SDS011;48759;52.544;13.418;2023-03-20T00:45:40;7.80;;;5.00;;
62693;SDS011;48759;52.544;13.418;2023-03-20T00:48:10;9.93;;;5.73;;
62693;SDS011;48759;52.544;13.418;2023-03-20T00:50:41;7.40;;;5.40;;
62693;SDS011;48759;52.544;13.418;2023-03-20T00:53:09;7.30;;;6.30;;
62693;SDS011;48759;52.544;13.418;2023-03-20T00:55:36;7.03;;;5.97;;
62693;SDS011;48759;52.544;13.418;2023-03-20T00:58:05;6.40;;;5.80;;
62693;SDS011;48759;52.544;13.418;2023-03-20T01:00:34;9.10;;;6.23;;
62693;SDS011;48759;52.544;13.418;2023-03-20T01:03:09;7.50;;;6.00;;
62693;SDS011;48759;52.544;13.418;2023-03-20T01:05:38;11.03;;;7.60;;
62693;SDS011;48759;52.544;13.418;2023-03-20T01:08:10;10.13;;;6.33;;
62693;SDS011;48759;52.544;13.418;2023-03-20T01:10:38;8.13;;;6.53;;
62693;SDS011;48759;52.544;13.418;2023-03-20T01:13:08;9.13;;;6.33;;
62693;SDS011;48759;52.544;13.418;2023-03-20T01:15:49;7.33;;;5.93;;
62693;SDS011;48759;52.544;13.418;2023-03-20T01:18:17;7.00;;;6.30;;
62693;SDS011;48759;52.544;13.418;2023-03-20T01:20:45;7.17;;;5.70;;
62693;SDS011;48759;52.544;13.418;2023-03-20T01:23:14;7.33;;;6.63;;
62693;SDS011;48759;52.544;13.418;2023-03-20T01:25:42;7.23;;;6.40;;
62693;SDS011;48759;52.544;13.418;2023-03-20T01:28:12;12.13;;;6.80;;
62693;SDS011;48759;52.544;13.418;2023-03-20T01:30:46;8.90;;;5.93;;
62693;SDS011;48759;52.544;13.418;2023-03-20T01:33:13;10.27;;;6.70;;
62693;SDS011;48759;52.544;13.418;2023-03-20T01:35:41;9.67;;;7.10;;
62693;SDS011;48759;52.544;13.418;2023-03-20T01:38:12;8.73;;;6.63;;
62693;SDS011;48759;52.544;13.418;2023-03-20T01:40:47;9.37;;;6.40;;
62693;SDS011;48759;52.544;13.418;2023-03-20T01:43:20;10.13;;;6.60;;
62693;SDS011;48759;52.544;13.418;2023-03-20T01:45:52;10.90;;;6.67;;
62693;SDS011;48759;52.544;13.418;2023-03-20T01:48:23;9.90;;;6.47;;
62693;SDS011;48759;52.544;13.418;2023-03-20T01:50:52;10.07;;;7.00;;
62693;SDS011;48759;52.544;13.418;2023-03-20T01:53:22;8.10;;;7.00;;
62693;SDS011;48759;52.544;13.418;2023-03-20T01:55:52;8.93;;;7.33;;
62693;SDS011;48759;52.544;13.418;2023-03-20T01:58:22;7.00;;;6.10;;
62693;SDS011;48759;52.544;13.418;2023-03-20T02:00:54;8.57;;;6.60;;
62693;SDS011;48759;52.544;13.418;2023-03-20T02:03:21;8.27;;;6.83;;
62693;SDS011;48759;52.544;13.418;2023-03-20T02:05:50;8.93;;;6.90;;
62693;SDS011;48759;52.544;13.418;2023-03-20T02:08:20;8.20;;;6.87;;
62693;SDS011;48759;52.544;13.418;2023-03-20T02:10:54;9.00;;;6.27;;
62693;SDS011;48759;52.544;13.418;2023-03-20T02:13:22;8.03;;;7.13;;
62693;SDS011;48759;52.544;13.418;2023-03-20T02:15:53;7.90;;;6.00;;
62693;SDS011;48759;52.544;13.418;2023-03-20T02:18:24;10.47;;;6.40;;
62693;SDS011;48759;52.544;13.418;2023-03-20T02:21:01;9.23;;;7.60;;
62693;SDS011;48759;52.544;13.418;2023-03-20T02:24:03;9.13;;;6.47;;
62693;SDS011;48759;52.544;13.418;2023-03-20T02:26:49;8.70;;;6.93;;
62693;SDS011;48759;52.544;13.418;2023-03-20T02:29:36;9.00;;;7.07;;
62693;SDS011;48759;52.544;13.418;2023-03-20T02:32:26;8.80;;;7.10;;
62693;SDS011;48759;52.544;13.418;2023-03-20T02:35:13;8.17;;;7.00;;
62693;SDS011;48759;52.544;13.418;2023-03-20T02:40:56;10.40;;;7.70;;
62693;SDS011;48759;52.544;13.418;2023-03-20T02:43:34;8.30;;;6.70;;
62693;SDS011;48759;52.544;13.418;2023-03-20T02:46:10;8.40;;;6.97;;
62693;SDS011;48759;52.544;13.418;2023-03-20T02:48:51;9.83;;;7.90;;
62693;SDS011;48759;52.544;13.418;2023-03-20T02:51:23;12.70;;;7.03;;
62693;SDS011;48759;52.544;13.418;2023-03-20T02:59:25;9.40;;;7.27;;
62693;SDS011;48759;52.544;13.418;2023-03-20T03:01:58;9.13;;;7.70;;
62693;SDS011;48759;52.544;13.418;2023-03-20T03:04:32;9.13;;;8.00;;
62693;SDS011;48759;52.544;13.418;2023-03-20T03:07:01;11.83;;;7.87;;
62693;SDS011;48759;52.544;13.418;2023-03-20T03:09:34;11.67;;;7.40;;
62693;SDS011;48759;52.544;13.418;2023-03-20T03:12:09;10.90;;;7.60;;
62693;SDS011;48759;52.544;13.418;2023-03-20T03:14:42;10.60;;;8.07;;
62693;SDS011;48759;52.544;13.418;2023-03-20T03:17:14;10.90;;;8.17;;
62693;SDS011;48759;52.544;13.418;2023-03-20T03:19:44;8.83;;;7.90;;
62693;SDS011;48759;52.544;13.418;2023-03-20T03:22:13;8.47;;;7.57;;
62693;SDS011;48759;52.544;13.418;2023-03-20T03:24:44;8.40;;;7.53;;
62693;SDS011;48759;52.544;13.418;2023-03-20T03:27:13;9.70;;;7.43;;
62693;SDS011;48759;52.544;13.418;2023-03-20T03:29:45;10.80;;;9.10;;
62693;SDS011;48759;52.544;13.418;2023-03-20T03:32:24;12.17;;;8.27;;
62693;SDS011;48759;52.544;13.418;2023-03-20T03:34:55;13.03;;;8.60;;
62693;SDS011;48759;52.544;13.418;2023-03-20T03:37:27;13.53;;;9.57;;
62693;SDS011;48759;52.544;13.418;2023-03-20T03:40:06;10.30;;;9.20;;
62693;SDS011;48759;52.544;13.418;2023-03-20T03:42:43;16.53;;;10.37;;
62693;SDS011;48759;52.544;13.418;2023-03-20T03:45:17;13.23;;;10.13;;
62693;SDS011;48759;52.544;13.418;2023-03-20T03:47:52;11.80;;;9.43;;
62693;SDS011;48759;52.544;13.418;2023-03-20T03:50:22;15.87;;;11.40;;
62693;SDS011;48759;52.544;13.418;2023-03-20T03:52:53;14.23;;;9.77;;
62693;SDS011;48759;52.544;13.418;2023-03-20T03:55:25;12.60;;;10.00;;
62693;SDS011;48759;52.544;13.418;2023-03-20T03:57:58;13.10;;;9.80;;
62693;SDS011;48759;52.544;13.418;2023-03-20T04:00:29;11.47;;;9.50;;
62693;SDS011;48759;52.544;13.418;2023-03-20T04:02:59;12.80;;;10.30;;
62693;SDS011;48759;52.544;13.418;2023-03-20T04:05:26;15.63;;;10.93;;
62693;SDS011;48759;52.544;13.418;2023-03-20T04:08:00;11.93;;;9.63;;
62693;SDS011;48759;52.544;13.418;2023-03-20T04:10:30;13.63;;;10.60;;
62693;SDS011;48759;52.544;13.418;2023-03-20T04:12:57;15.63;;;10.13;;
62693;SDS011;48759;52.544;13.418;2023-03-20T04:15:24;17.33;;;10.80;;
62693;SDS011;48759;52.544;13.418;2023-03-20T04:17:52;15.20;;;10.50;;
62693;SDS011;48759;52.544;13.418;2023-03-20T04:20:19;13.13;;;10.60;;
62693;SDS011;48759;52.544;13.418;2023-03-20T04:22:46;12.30;;;10.80;;
62693;SDS011;48759;52.544;13.418;2023-03-20T04:25:15;16.50;;;11.07;;
62693;SDS011;48759;52.544;13.418;2023-03-20T04:27:45;14.90;;;10.80;;
62693;SDS011;48759;52.544;13.418;2023-03-20T04:30:12;14.53;;;10.87;;
62693;SDS011;48759;52.544;13.418;2023-03-20T04:32:39;16.13;;;11.10;;
62693;SDS011;48759;52.544;13.418;2023-03-20T04:35:06;18.63;;;11.60;;
62693;SDS011;48759;52.544;13.418;2023-03-20T04:37:34;13.10;;;11.33;;
62693;SDS011;48759;52.544;13.418;2023-03-20T04:40:01;14.63;;;11.00;;
62693;SDS011;48759;52.544;13.418;2023-03-20T04:42:28;14.70;;;10.30;;
62693;SDS011;48759;52.544;13.418;2023-03-20T04:44:57;14.40;;;11.90;;
62693;SDS011;48759;52.544;13.418;2023-03-20T04:47:24;14.70;;;11.37;;
62693;SDS011;48759;52.544;13.418;2023-03-20T04:49:52;16.43;;;11.33;;
62693;SDS011;48759;52.544;13.418;2023-03-20T04:52:19;17.67;;;11.77;;
62693;SDS011;48759;52.544;13.418;2023-03-20T04:54:46;20.50;;;10.73;;
62693;SDS011;48759;52.544;13.418;2023-03-20T04:57:13;14.40;;;10.73;;
62693;SDS011;48759;52.544;13.418;2023-03-20T04:59:40;15.67;;;11.30;;
62693;SDS011;48759;52.544;13.418;2023-03-20T05:02:08;14.10;;;11.20;;
62693;SDS011;48759;52.544;13.418;2023-03-20T05:04:39;15.97;;;11.63;;
62693;SDS011;48759;52.544;13.418;2023-03-20T05:07:06;15.03;;;11.27;;
62693;SDS011;48759;52.544;13.418;2023-03-20T05:09:33;13.50;;;11.20;;
62693;SDS011;48759;52.544;13.418;2023-03-20T05:12:00;16.07;;;11.90;;
62693;SDS011;48759;52.544;13.418;2023-03-20T05:14:27;14.63;;;11.93;;
62693;SDS011;48759;52.544;13.418;2023-03-20T05:16:55;16.63;;;11.47;;
62693;SDS011;48759;52.544;13.418;2023-03-20T05:19:23;15.27;;;12.47;;
62693;SDS011;48759;52.544;13.418;2023-03-20T05:21:50;16.80;;;13.00;;
62693;SDS011;48759;52.544;13.418;2023-03-20T05:24:17;16.63;;;12.50;;
62693;SDS011;48759;52.544;13.418;2023-03-20T05:26:46;20.30;;;12.80;;
62693;SDS011;48759;52.544;13.418;2023-03-20T05:29:13;18.00;;;12.63;;
62693;SDS011;48759;52.544;13.418;2023-03-20T05:31:39;21.97;;;14.00;;
62693;SDS011;48759;52.544;13.418;2023-03-20T05:34:06;17.23;;;13.60;;
62693;SDS011;48759;52.544;13.418;2023-03-20T05:36:35;22.70;;;12.87;;
62693;SDS011;48759;52.544;13.418;2023-03-20T05:39:01;19.03;;;13.40;;
62693;SDS011;48759;52.544;13.418;2023-03-20T05:41:31;17.83;;;13.80;;
62693;SDS011;48759;52.544;13.418;2023-03-20T05:43:57;20.17;;;14.27;;
62693;SDS011;48759;52.544;13.418;2023-03-20T05:46:24;21.60;;;13.40;;
62693;SDS011;48759;52.544;13.418;2023-03-20T05:48:51;22.90;;;13.73;;
62693;SDS011;48759;52.544;13.418;2023-03-20T05:51:18;20.23;;;14.77;;
62693;SDS011;48759;52.544;13.418;2023-03-20T05:53:47;19.50;;;14.70;;
62693;SDS011;48759;52.544;13.418;2023-03-20T05:56:13;18.77;;;13.53;;
62693;SDS011;48759;52.544;13.418;2023-03-20T05:58:40;16.67;;;14.17;;
62693;SDS011;48759;52.544;13.418;2023-03-20T06:01:08;22.30;;;15.97;;
62693;SDS011;48759;52.544;13.418;2023-03-20T06:03:35;21.97;;;16.13;;
62693;SDS011;48759;52.544;13.418;2023-03-20T06:06:02;21.87;;;16.07;;
62693;SDS011;48759;52.544;13.418;2023-03-20T06:08:29;22.97;;;16.07;;
62693;SDS011;48759;52.544;13.418;2023-03-20T06:10:57;22.63;;;17.03;;
62693;SDS011;48759;52.544;13.418;2023-03-20T06:13:23;20.20;;;15.50;;
62693;SDS011;48759;52.544;13.418;2023-03-20T06:15:50;23.93;;;16.90;;
62693;SDS011;48759;52.544;13.418;2023-03-20T06:18:17;21.00;;;15.53;;
62693;SDS011;48759;52.544;13.418;2023-03-20T06:20:44;25.17;;;17.73;;
62693;SDS011;48759;52.544;13.418;2023-03-20T06:23:11;26.20;;;18.43;;
62693;SDS011;48759;52.544;13.418;2023-03-20T06:25:39;25.20;;;17.73;;
62693;SDS011;48759;52.544;13.418;2023-03-20T06:28:07;25.73;;;18.63;;
62693;SDS011;48759;52.544;13.418;2023-03-20T06:30:34;29.10;;;18.57;;
62693;SDS011;48759;52.544;13.418;2023-03-20T06:33:00;22.77;;;17.67;;
62693;SDS011;48759;52.544;13.418;2023-03-20T06:35:27;27.90;;;19.43;;
62693;SDS011;48759;52.544;13.418;2023-03-20T06:37:55;27.70;;;19.17;;
62693;SDS011;48759;52.544;13.418;2023-03-20T06:40:22;27.77;;;19.80;;
62693;SDS011;48759;52.544;13.418;2023-03-20T06:42:51;31.53;;;18.53;;
62693;SDS011;48759;52.544;13.418;2023-03-20T06:45:20;28.03;;;19.20;;
62693;SDS011;48759;52.544;13.418;2023-03-20T06:47:47;38.90;;;21.83;;
62693;SDS011;48759;52.544;13.418;2023-03-20T06:50:14;29.77;;;21.17;;
62693;SDS011;48759;52.544;13.418;2023-03-20T06:52:41;41.77;;;23.27;;
62693;SDS011;48759;52.544;13.418;2023-03-20T06:55:09;43.03;;;25.20;;
62693;SDS011;48759;52.544;13.418;2023-03-20T06:57:35;43.60;;;25.40;;
62693;SDS011;48759;52.544;13.418;2023-03-20T07:00:02;43.80;;;26.00;;
62693;SDS011;48759;52.544;13.418;2023-03-20T07:02:33;44.00;;;24.90;;
62693;SDS011;48759;52.544;13.418;2023-03-20T07:05:04;53.90;;;26.83;;
62693;SDS011;48759;52.544;13.418;2023-03-20T07:07:32;52.13;;;26.47;;
62693;SDS011;48759;52.544;13.418;2023-03-20T07:09:59;40.50;;;25.50;;
62693;SDS011;48759;52.544;13.418;2023-03-20T07:12:26;53.73;;;27.40;;
62693;SDS011;48759;52.544;13.418;2023-03-20T07:14:53;46.97;;;26.33;;
62693;SDS011;48759;52.544;13.418;2023-03-20T07:17:21;46.30;;;28.73;;
62693;SDS011;48759;52.544;13.418;2023-03-20T07:19:49;54.03;;;27.00;;
62693;SDS011;48759;52.544;13.418;2023-03-20T07:22:18;42.97;;;24.10;;
62693;SDS011;48759;52.544;13.418;2023-03-20T07:24:50;50.23;;;26.83;;
62693;SDS011;48759;52.544;13.418;2023-03-20T07:27:17;52.37;;;26.53;;
62693;SDS011;48759;52.544;13.418;2023-03-20T07:29:44;47.30;;;25.63;;
62693;SDS011;48759;52.544;13.418;2023-03-20T07:32:14;44.50;;;24.53;;
62693;SDS011;48759;52.544;13.418;2023-03-20T07:34:41;47.27;;;25.43;;
62693;SDS011;48759;52.544;13.418;2023-03-20T07:37:09;54.00;;;25.17;;
62693;SDS011;48759;52.544;13.418;2023-03-20T07:39:36;46.77;;;24.57;;
62693;SDS011;48759;52.544;13.418;2023-03-20T07:42:03;51.20;;;22.80;;
62693;SDS011;48759;52.544;13.418;2023-03-20T07:44:30;44.70;;;23.23;;
62693;SDS011;48759;52.544;13.418;2023-03-20T07:46:57;50.70;;;24.97;;
62693;SDS011;48759;52.544;13.418;2023-03-20T07:49:24;42.60;;;23.87;;
62693;SDS011;48759;52.544;13.418;2023-03-20T07:51:51;47.77;;;23.27;;
62693;SDS011;48759;52.544;13.418;2023-03-20T07:54:20;47.20;;;23.73;;
62693;SDS011;48759;52.544;13.418;2023-03-20T07:56:48;44.07;;;22.90;;
62693;SDS011;48759;52.544;13.418;2023-03-20T07:59:17;45.47;;;23.27;;
62693;SDS011;48759;52.544;13.418;2023-03-20T08:01:44;40.50;;;22.60;;
62693;SDS011;48759;52.544;13.418;2023-03-20T08:04:11;44.60;;;22.60;;
62693;SDS011;48759;52.544;13.418;2023-03-20T08:06:38;37.97;;;21.20;;
62693;SDS011;48759;52.544;13.418;2023-03-20T08:09:05;36.43;;;20.93;;
62693;SDS011;48759;52.544;13.418;2023-03-20T08:11:35;42.40;;;22.50;;
62693;SDS011;48759;52.544;13.418;2023-03-20T08:14:02;43.10;;;23.80;;
62693;SDS011;48759;52.544;13.418;2023-03-20T08:16:32;39.60;;;22.20;;
62693;SDS011;48759;52.544;13.418;2023-03-20T08:18:59;39.53;;;21.60;;
62693;SDS011;48759;52.544;13.418;2023-03-20T08:21:27;38.90;;;21.40;;
62693;SDS011;48759;52.544;13.418;2023-03-20T08:23:54;46.07;;;22.30;;
62693;SDS011;48759;52.544;13.418;2023-03-20T08:26:21;42.67;;;22.43;;
62693;SDS011;48759;52.544;13.418;2023-03-20T08:28:50;50.90;;;22.50;;
62693;SDS011;48759;52.544;13.418;2023-03-20T08:31:16;39.63;;;18.60;;
62693;SDS011;48759;52.544;13.418;2023-03-20T08:33:43;40.50;;;19.83;;
62693;SDS011;48759;52.544;13.418;2023-03-20T08:36:11;36.83;;;20.53;;
62693;SDS011;48759;52.544;13.418;2023-03-20T08:38:39;38.00;;;20.97;;
62693;SDS011;48759;52.544;13.418;2023-03-20T08:41:06;37.10;;;18.77;;
62693;SDS011;48759;52.544;13.418;2023-03-20T08:43:33;39.40;;;19.30;;
62693;SDS011;48759;52.544;13.418;2023-03-20T08:46:02;32.17;;;19.60;;
62693;SDS011;48759;52.544;13.418;2023-03-20T08:48:29;35.57;;;18.23;;
62693;SDS011;48759;52.544;13.418;2023-03-20T08:50:56;33.00;;;18.80;;
62693;SDS011;48759;52.544;13.418;2023-03-20T08:53:23;37.73;;;19.30;;
62693;SDS011;48759;52.544;13.418;2023-03-20T08:55:50;34.07;;;18.13;;
62693;SDS011;48759;52.544;13.418;2023-03-20T08:58:18;31.47;;;18.23;;
62693;SDS011;48759;52.544;13.418;2023-03-20T09:00:46;32.67;;;18.13;;
62693;SDS011;48759;52.544;13.418;2023-03-20T09:03:15;39.60;;;18.30;;
62693;SDS011;48759;52.544;13.418;2023-03-20T09:05:43;32.10;;;18.00;;
62693;SDS011;48759;52.544;13.418;2023-03-20T09:08:10;29.17;;;17.17;;
62693;SDS011;48759;52.544;13.418;2023-03-20T09:10:38;33.03;;;17.97;;
62693;SDS011;48759;52.544;13.418;2023-03-20T09:13:05;30.70;;;16.43;;
62693;SDS011;48759;52.544;13.418;2023-03-20T09:15:32;33.50;;;17.73;;
62693;SDS011;48759;52.544;13.418;2023-03-20T09:18:00;28.93;;;16.93;;
62693;SDS011;48759;52.544;13.418;2023-03-20T09:20:28;30.10;;;17.40;;
62693;SDS011;48759;52.544;13.418;2023-03-20T09:22:55;30.80;;;16.50;;
62693;SDS011;48759;52.544;13.418;2023-03-20T09:25:22;29.33;;;16.70;;
62693;SDS011;48759;52.544;13.418;2023-03-20T09:27:50;32.67;;;18.73;;
62693;SDS011;48759;52.544;13.418;2023-03-20T09:30:19;31.20;;;16.17;;
62693;SDS011;48759;52.544;13.418;2023-03-20T09:32:46;27.63;;;15.23;;
62693;SDS011;48759;52.544;13.418;2023-03-20T09:35:12;26.00;;;15.73;;
62693;SDS011;48759;52.544;13.418;2023-03-20T09:37:41;28.13;;;15.60;;
62693;SDS011;48759;52.544;13.418;2023-03-20T09:40:09;24.97;;;13.60;;
62693;SDS011;48759;52.544;13.418;2023-03-20T09:42:50;27.97;;;15.10;;
62693;SDS011;48759;52.544;13.418;2023-03-20T09:45:22;22.80;;;13.80;;
62693;SDS011;48759;52.544;13.418;2023-03-20T09:48:00;25.60;;;14.90;;
62693;SDS011;48759;52.544;13.418;2023-03-20T09:50:37;22.97;;;12.67;;
62693;SDS011;48759;52.544;13.418;2023-03-20T09:53:13;23.27;;;12.60;;
62693;SDS011;48759;52.544;13.418;2023-03-20T09:55:46;22.93;;;12.07;;
62693;SDS011;48759;52.544;13.418;2023-03-20T09:58:16;23.33;;;12.07;;
62693;SDS011;48759;52.544;13.418;2023-03-20T10:00:48;20.60;;;12.47;;
62693;SDS011;48759;52.544;13.418;2023-03-20T10:03:16;23.23;;;13.23;;
62693;SDS011;48759;52.544;13.418;2023-03-20T10:05:46;21.43;;;13.63;;
62693;SDS011;48759;52.544;13.418;2023-03-20T10:08:20;22.70;;;13.70;;
62693;SDS011;48759;52.544;13.418;2023-03-20T10:10:51;22.27;;;13.10;;
62693;SDS011;48759;52.544;13.418;2023-03-20T10:13:32;21.10;;;12.70;;
62693;SDS011;48759;52.544;13.418;2023-03-20T10:16:12;23.30;;;13.03;;
62693;SDS011;48759;52.544;13.418;2023-03-20T10:18:46;19.20;;;10.70;;
62693;SDS011;48759;52.544;13.418;2023-03-20T10:21:20;19.77;;;11.33;;
62693;SDS011;48759;52.544;13.418;2023-03-20T10:23:58;17.20;;;10.60;;
62693;SDS011;48759;52.544;13.418;2023-03-20T10:26:29;15.30;;;10.07;;
62693;SDS011;48759;52.544;13.418;2023-03-20T10:28:59;21.00;;;10.83;;
62693;SDS011;48759;52.544;13.418;2023-03-20T10:31:32;18.60;;;10.33;;
62693;SDS011;48759;52.544;13.418;2023-03-20T10:34:14;16.13;;;10.27;;
62693;SDS011;48759;52.544;13.418;2023-03-20T10:36:53;19.90;;;10.10;;
62693;SDS011;48759;52.544;13.418;2023-03-20T10:39:38;17.50;;;11.00;;
62693;SDS011;48759;52.544;13.418;2023-03-20T10:42:19;17.20;;;9.87;;
62693;SDS011;48759;52.544;13.418;2023-03-20T10:44:51;17.30;;;10.50;;
62693;SDS011;48759;52.544;13.418;2023-03-20T10:47:21;14.77;;;9.40;;
62693;SDS011;48759;52.544;13.418;2023-03-20T10:49:56;17.50;;;10.17;;
62693;SDS011;48759;52.544;13.418;2023-03-20T10:52:29;18.40;;;10.10;;
62693;SDS011;48759;52.544;13.418;2023-03-20T10:55:03;17.47;;;9.67;;
62693;SDS011;48759;52.544;13.418;2023-03-20T10:57:36;16.57;;;10.47;;
62693;SDS011;48759;52.544;13.418;2023-03-20T11:00:13;18.57;;;11.20;;
62693;SDS011;48759;52.544;13.418;2023-03-20T11:02:44;15.73;;;9.23;;
62693;SDS011;48759;52.544;13.418;2023-03-20T11:05:27;16.57;;;9.10;;
62693;SDS011;48759;52.544;13.418;2023-03-20T11:08:01;14.73;;;9.57;;
62693;SDS011;48759;52.544;13.418;2023-03-20T11:10:33;16.63;;;9.30;;
62693;SDS011;48759;52.544;13.418;2023-03-20T11:13:13;16.57;;;9.93;;
62693;SDS011;48759;52.544;13.418;2023-03-20T11:15:43;15.17;;;9.30;;
62693;SDS011;48759;52.544;13.418;2023-03-20T11:18:11;17.10;;;9.40;;
62693;SDS011;48759;52.544;13.418;2023-03-20T11:20:43;13.47;;;8.30;;
62693;SDS011;48759;52.544;13.418;2023-03-20T11:23:14;14.40;;;8.50;;
62693;SDS011;48759;52.544;13.418;2023-03-20T11:25:49;13.20;;;8.60;;
62693;SDS011;48759;52.544;13.418;2023-03-20T11:28:24;16.63;;;9.20;;
62693;SDS011;48759;52.544;13.418;2023-03-20T11:30:57;16.33;;;9.10;;
62693;SDS011;48759;52.544;13.418;2023-03-20T11:33:26;14.77;;;9.77;;
62693;SDS011;48759;52.544;13.418;2023-03-20T11:36:10;11.93;;;7.83;;
62693;SDS011;48759;52.544;13.418;2023-03-20T11:38:45;15.90;;;8.73;;
62693;SDS011;48759;52.544;13.418;2023-03-20T11:41:22;15.70;;;9.80;;
62693;SDS011;48759;52.544;13.418;2023-03-20T11:43:50;13.70;;;8.70;;
62693;SDS011;48759;52.544;13.418;2023-03-20T11:46:18;13.07;;;8.20;;
62693;SDS011;48759;52.544;13.418;2023-03-20T11:49:00;16.27;;;9.43;;
62693;SDS011;48759;52.544;13.418;2023-03-20T11:51:31;14.50;;;7.90;;
62693;SDS011;48759;52.544;13.418;2023-03-20T11:54:00;16.17;;;9.00;;
62693;SDS011;48759;52.544;13.418;2023-03-20T11:56:30;15.87;;;8.57;;
62693;SDS011;48759;52.544;13.418;2023-03-20T11:58:59;12.40;;;8.60;;
62693;SDS011;48759;52.544;13.418;2023-03-20T12:01:29;12.17;;;8.80;;
62693;SDS011;48759;52.544;13.418;2023-03-20T12:04:06;16.43;;;8.67;;
62693;SDS011;48759;52.544;13.418;2023-03-20T12:06:40;16.90;;;9.63;;
62693;SDS011;48759;52.544;13.418;2023-03-20T12:09:14;17.20;;;9.57;;
62693;SDS011;48759;52.544;13.418;2023-03-20T12:12:11;11.83;;;7.70;;
62693;SDS011;48759;52.544;13.418;2023-03-20T12:14:46;15.47;;;9.27;;
62693;SDS011;48759;52.544;13.418;2023-03-20T12:17:29;14.00;;;8.23;;
62693;SDS011;48759;52.544;13.418;2023-03-20T12:20:01;14.90;;;10.00;;
62693;SDS011;48759;52.544;13.418;2023-03-20T12:22:34;18.17;;;9.97;;
62693;SDS011;48759;52.544;13.418;2023-03-20T12:25:06;13.47;;;9.27;;
62693;SDS011;48759;52.544;13.418;2023-03-20T12:27:43;16.60;;;9.23;;
62693;SDS011;48759;52.544;13.418;2023-03-20T12:30:14;15.57;;;9.10;;
62693;SDS011;48759;52.544;13.418;2023-03-20T12:32:49;21.17;;;10.80;;
62693;SDS011;48759;52.544;13.418;2023-03-20T12:35:23;17.63;;;10.00;;
62693;SDS011;48759;52.544;13.418;2023-03-20T12:37:54;26.20;;;13.60;;
62693;SDS011;48759;52.544;13.418;2023-03-20T12:40:23;26.67;;;15.00;;
62693;SDS011;48759;52.544;13.418;2023-03-20T12:43:03;17.90;;;10.80;;
62693;SDS011;48759;52.544;13.418;2023-03-20T12:45:38;23.03;;;11.17;;
62693;SDS011;48759;52.544;13.418;2023-03-20T12:48:15;25.17;;;10.57;;
62693;SDS011;48759;52.544;13.418;2023-03-20T12:51:00;28.20;;;12.73;;
62693;SDS011;48759;52.544;13.418;2023-03-20T12:53:36;26.47;;;12.00;;
62693;SDS011;48759;52.544;13.418;2023-03-20T12:58:46;23.53;;;11.63;;
62693;SDS011;48759;52.544;13.418;2023-03-20T13:01:17;22.00;;;11.57;;
62693;SDS011;48759;52.544;13.418;2023-03-20T13:03:55;18.70;;;10.60;;
62693;SDS011;48759;52.544;13.418;2023-03-20T13:07:02;25.90;;;11.50;;
62693;SDS011;48759;52.544;13.418;2023-03-20T13:09:57;19.63;;;11.33;;
62693;SDS011;48759;52.544;13.418;2023-03-20T13:12:35;19.70;;;10.80;;
62693;SDS011;48759;52.544;13.418;2023-03-20T13:15:19;19.23;;;11.97;;
62693;SDS011;48759;52.544;13.418;2023-03-20T13:17:55;18.60;;;11.30;;
62693;SDS011;48759;52.544;13.418;2023-03-20T13:20:31;17.60;;;12.53;;
62693;SDS011;48759;52.544;13.418;2023-03-20T13:23:09;28.17;;;13.30;;
62693;SDS011;48759;52.544;13.418;2023-03-20T13:25:49;36.33;;;15.60;;
62693;SDS011;48759;52.544;13.418;2023-03-20T13:28:23;39.57;;;15.63;;
62693;SDS011;48759;52.544;13.418;2023-03-20T13:30:57;37.93;;;16.67;;
62693;SDS011;48759;52.544;13.418;2023-03-20T13:33:33;45.23;;;18.80;;
62693;SDS011;48759;52.544;13.418;2023-03-20T13:36:11;30.13;;;13.73;;
62693;SDS011;48759;52.544;13.418;2023-03-20T13:38:51;24.70;;;13.20;;
62693;SDS011;48759;52.544;13.418;2023-03-20T13:41:25;25.63;;;13.80;;
62693;SDS011;48759;52.544;13.418;2023-03-20T13:43:54;30.03;;;14.07;;
62693;SDS011;48759;52.544;13.418;2023-03-20T13:46:25;23.17;;;14.00;;
62693;SDS011;48759;52.544;13.418;2023-03-20T13:49:01;23.90;;;13.97;;
62693;SDS011;48759;52.544;13.418;2023-03-20T13:51:31;19.77;;;12.37;;
62693;SDS011;48759;52.544;13.418;2023-03-20T13:54:09;24.20;;;13.20;;
62693;SDS011;48759;52.544;13.418;2023-03-20T13:56:45;23.10;;;13.80;;
62693;SDS011;48759;52.544;13.418;2023-03-20T13:59:30;21.47;;;12.50;;
62693;SDS011;48759;52.544;13.418;2023-03-20T14:02:09;23.97;;;13.03;;
62693;SDS011;48759;52.544;13.418;2023-03-20T14:04:59;24.80;;;13.17;;
62693;SDS011;48759;52.544;13.418;2023-03-20T14:07:30;24.43;;;13.50;;
62693;SDS011;48759;52.544;13.418;2023-03-20T14:13:03;24.13;;;12.53;;
62693;SDS011;48759;52.544;13.418;2023-03-20T14:15:32;23.20;;;12.80;;
62693;SDS011;48759;52.544;13.418;2023-03-20T14:18:04;21.50;;;12.30;;
62693;SDS011;48759;52.544;13.418;2023-03-20T14:20:33;23.17;;;13.13;;
62693;SDS011;48759;52.544;13.418;2023-03-20T14:23:02;18.57;;;12.20;;
62693;SDS011;48759;52.544;13.418;2023-03-20T14:25:32;20.63;;;13.50;;
62693;SDS011;48759;52.544;13.418;2023-03-20T14:28:07;21.93;;;12.93;;
62693;SDS011;48759;52.544;13.418;2023-03-20T14:30:51;28.47;;;13.10;;
62693;SDS011;48759;52.544;13.418;2023-03-20T14:33:41;25.03;;;13.40;;
62693;SDS011;48759;52.544;13.418;2023-03-20T14:36:10;25.33;;;13.80;;
62693;SDS011;48759;52.544;13.418;2023-03-20T14:38:45;21.90;;;13.50;;
62693;SDS011;48759;52.544;13.418;2023-03-20T14:41:22;25.33;;;13.00;;
62693;SDS011;48759;52.544;13.418;2023-03-20T14:43:57;26.50;;;12.87;;
62693;SDS011;48759;52.544;13.418;2023-03-20T14:46:44;24.67;;;12.90;;
62693;SDS011;48759;52.544;13.418;2023-03-20T14:49:22;24.83;;;14.57;;
62693;SDS011;48759;52.544;13.418;2023-03-20T14:52:09;27.13;;;13.60;;
62693;SDS011;48759;52.544;13.418;2023-03-20T14:54:50;23.73;;;12.30;;